Time;durP1;ratioP1;P1;durP2;ratioP2;P2;SDS_P1;SDS_P2;PMS_P1;PMS_P2;Temp;Humidity;BMP_temperature;BMP_pressure;BME280_temperature;BME280_humidity;BME280_pressure;Samples;Min_cycle;Max_cycle;Signal;HPM_P1;HPM_P2
2024/03/17 00:00:24;;;;;;;;;16.33;14.67;;;;;14.30;62.80;102036.84;1994043;28;3545041;-75
2024/03/17 00:01:37;;;;;;;;;20.00;17.00;;;;;14.25;62.32;102030.81;2015793;28;2821183;-75
2024/03/17 00:02:49;;;;;;;;;16.00;15.33;;;;;14.28;62.44;102050.13;2009014;28;2813804;-75
2024/03/17 00:04:01;;;;;;;;;20.67;19.00;;;;;14.25;62.63;102036.09;2008740;28;3562753;-75
2024/03/17 00:05:13;;;;;;;;;18.67;16.33;;;;;14.24;62.61;102037.91;2015914;28;3553362;-75
2024/03/17 00:06:24;;;;;;;;;18.00;18.00;;;;;14.21;62.41;102040.63;2002494;28;3558569;-75
2024/03/17 00:07:36;;;;;;;;;18.67;18.67;;;;;14.22;62.63;102038.84;2027881;28;3567937;-75
2024/03/17 00:08:50;;;;;;;;;17.17;16.50;;;;;14.16;62.51;102030.19;2045829;28;2815888;-75
2024/03/17 00:10:01;;;;;;;;;18.00;16.00;;;;;14.15;62.50;102025.78;1991403;28;2814906;-75
2024/03/17 00:11:15;;;;;;;;;19.00;17.43;;;;;14.16;62.90;102030.19;2037265;28;1839897;-75
2024/03/17 00:12:26;;;;;;;;;17.00;15.00;;;;;14.12;62.91;102031.19;2001800;28;2802394;-75
2024/03/17 00:13:38;;;;;;;;;17.33;17.33;;;;;14.11;62.83;102029.44;1999914;28;3557497;-75
2024/03/17 00:14:49;;;;;;;;;9.00;6.00;;;;;14.10;62.69;102027.69;2028395;28;3461707;-75
2024/03/17 00:16:01;;;;;;;;;18.00;17.00;;;;;14.09;62.78;102022.47;2021056;28;3554408;-75
2024/03/17 00:17:12;;;;;;;;;18.00;16.33;;;;;14.01;62.98;102017.38;2014605;28;3553362;-75
2024/03/17 00:18:26;;;;;;;;;21.60;18.40;;;;;14.02;62.95;102021.75;2013930;28;3556453;-75
2024/03/17 00:19:37;;;;;;;;;20.33;17.67;;;;;13.99;62.85;102019.19;2000086;28;2827690;-75
2024/03/17 00:20:48;;;;;;;;;18.33;18.33;;;;;13.99;62.88;102022.72;1999160;28;3557540;-75
2024/03/17 00:22:00;;;;;;;;;24.33;20.33;;;;;13.97;62.85;102021.00;2025020;28;3572146;-75
2024/03/17 00:23:12;;;;;;;;;19.00;16.33;;;;;13.91;62.90;102022.91;2027371;28;3523175;-75
2024/03/17 00:24:24;;;;;;;;;17.67;17.67;;;;;13.86;63.05;102011.59;2032982;28;3553346;-75
2024/03/17 00:25:38;;;;;;;;;17.50;12.83;;;;;13.82;63.19;102004.66;2046985;28;1824305;-75
2024/03/17 00:26:49;;;;;;;;;22.00;17.50;;;;;13.83;63.09;102016.94;1995551;28;2821111;-75
2024/03/17 00:28:02;;;;;;;;;23.67;19.33;;;;;13.88;63.33;102022.97;2009556;28;3559565;-75
2024/03/17 00:29:12;;;;;;;;;19.00;17.00;;;;;13.82;63.34;102020.50;2020063;28;2826259;-75
2024/03/17 00:30:24;;;;;;;;;21.00;18.33;;;;;13.83;63.18;102024.88;1997781;28;3558086;-75
2024/03/17 00:31:37;;;;;;;;;17.67;16.33;;;;;13.81;63.23;102016.13;2017336;28;3552312;-75
2024/03/17 00:32:47;;;;;;;;;19.00;18.50;;;;;13.79;63.33;102020.59;2009802;28;2833627;-75
2024/03/17 00:33:59;;;;;;;;;17.60;17.60;;;;;13.78;63.27;102019.72;2003372;28;3552292;-75
2024/03/17 00:35:14;;;;;;;;;20.40;18.80;;;;;13.70;63.42;102006.69;2023700;28;3554372;-75
2024/03/17 00:36:24;;;;;;;;;20.00;17.00;;;;;13.72;63.95;102009.31;2016155;28;2821056;-75
2024/03/17 00:37:37;;;;;;;;;18.67;14.00;;;;;13.71;63.64;102012.84;2003705;28;2808626;-75
2024/03/17 00:38:48;;;;;;;;;20.00;17.50;;;;;13.70;63.53;102008.50;2011463;28;2818368;-75
2024/03/17 00:40:03;;;;;;;;;17.00;16.33;;;;;13.68;63.69;102010.31;2016962;28;3538803;-75
2024/03/17 00:41:14;;;;;;;;;18.00;18.00;;;;;13.69;63.54;102018.19;2008840;28;2821103;-75
2024/03/17 00:42:26;;;;;;;;;17.20;17.20;;;;;13.64;63.89;102012.16;2029514;28;2807555;-75
2024/03/17 00:43:37;;;;;;;;;20.00;18.00;;;;;13.65;63.70;102013.91;2016807;28;3566923;-75
2024/03/17 00:44:49;;;;;;;;;16.33;16.00;;;;;13.59;63.72;102006.13;2023586;28;3555442;-75
2024/03/17 00:46:01;;;;;;;;;17.00;16.60;;;;;13.58;64.09;102007.03;2032758;28;3554892;-75
2024/03/17 00:47:13;;;;;;;;;18.67;18.00;;;;;13.60;64.12;102013.16;2024171;28;3559597;-75
2024/03/17 00:48:24;;;;;;;;;20.20;17.40;;;;;13.56;63.92;102009.69;2012668;28;3539805;-75
2024/03/17 00:49:36;;;;;;;;;20.33;17.67;;;;;13.56;63.99;102008.78;2021294;28;3560657;-75
2024/03/17 00:50:55;;;;;;;;;23.20;19.60;;;;;13.50;64.13;102000.16;2035769;28;3579394;-75
2024/03/17 00:52:06;;;;;;;;;19.33;16.33;;;;;13.57;64.01;102010.56;2000064;28;3528390;-75
2024/03/17 00:53:18;;;;;;;;;19.00;18.00;;;;;13.50;64.16;102000.16;2027990;28;3558531;-75
2024/03/17 00:54:30;;;;;;;;;22.67;21.00;;;;;13.49;63.96;102002.81;2025646;28;3565892;-75
2024/03/17 00:55:42;;;;;;;;;19.00;19.00;;;;;13.52;64.21;102009.78;2022973;28;3569098;-75
2024/03/17 00:56:54;;;;;;;;;21.00;17.67;;;;;13.47;64.34;102000.22;2016375;28;3568335;-75
2024/03/17 00:58:06;;;;;;;;;21.33;19.33;;;;;13.51;63.91;102006.28;2012514;28;3566934;-75
2024/03/17 00:59:18;;;;;;;;;16.60;16.00;;;;;13.53;64.54;102014.19;2025564;28;3528331;-75
2024/03/17 01:00:30;;;;;;;;;17.33;17.33;;;;;13.45;64.17;101999.38;2014083;28;2823299;-75
2024/03/17 01:01:43;;;;;;;;;16.00;16.00;;;;;13.50;64.54;101999.28;2006837;28;2819084;-75
2024/03/17 01:02:54;;;;;;;;;18.00;14.50;;;;;13.47;64.43;102005.50;2009047;28;2803372;-75
2024/03/17 01:04:06;;;;;;;;;12.00;12.00;;;;;13.48;64.65;102003.72;1999452;28;2802310;-75
2024/03/17 01:05:17;;;;;;;;;21.00;19.00;;;;;13.45;64.70;102001.16;1975527;28;2826592;-75
2024/03/17 01:06:28;;;;;;;;;15.00;15.00;;;;;13.39;64.78;101991.59;1983710;28;2798180;-75
2024/03/17 01:07:40;;;;;;;;;22.00;20.00;;;;;13.46;64.52;102006.38;2000961;28;3576265;-75
2024/03/17 01:08:52;;;;;;;;;21.00;18.00;;;;;13.42;64.78;101999.47;2010482;28;3566930;-74
2024/03/17 01:10:07;;;;;;;;;17.67;16.67;;;;;13.48;64.67;102009.00;2009062;28;2818055;-75
2024/03/17 01:11:19;;;;;;;;;23.67;22.67;;;;;13.38;64.68;102003.09;2007691;28;3579425;-75
2024/03/17 01:12:31;;;;;;;;;28.33;23.00;;;;;13.47;64.61;102023.97;1980328;28;3598171;-75
2024/03/17 01:13:43;;;;;;;;;24.40;21.20;;;;;13.47;64.81;102016.06;2021963;28;3581465;-75
2024/03/17 01:14:55;;;;;;;;;23.33;19.67;;;;;13.43;64.83;102011.78;1996308;28;3571054;-75
2024/03/17 01:16:07;;;;;;;;;19.67;18.33;;;;;13.38;64.96;102001.28;2017521;28;3563772;-75
2024/03/17 01:17:19;;;;;;;;;22.67;18.67;;;;;13.41;64.86;102005.63;2009549;28;3564823;-75
2024/03/17 01:18:32;;;;;;;;;21.00;17.60;;;;;13.40;64.86;101998.63;2028587;28;2826267;-75
2024/03/17 01:19:45;;;;;;;;;21.20;19.80;;;;;13.41;64.74;101991.59;2002405;28;2837721;-75
2024/03/17 01:20:55;;;;;;;;;25.50;20.00;;;;;13.37;64.96;101988.13;1978754;28;2833544;-75
2024/03/17 01:22:07;;;;;;;;;15.00;15.00;;;;;13.38;64.92;101984.59;1990602;28;2795050;-75
2024/03/17 01:23:18;;;;;;;;;21.67;19.67;;;;;13.41;64.74;101989.78;2008968;28;3567945;-75
2024/03/17 01:24:31;;;;;;;;;21.67;19.67;;;;;13.44;64.99;101995.00;2021527;28;3573160;-75
2024/03/17 01:25:45;;;;;;;;;16.00;12.17;;;;;13.41;64.85;101989.78;2045744;28;1819635;-75
2024/03/17 01:26:59;;;;;;;;;14.17;13.00;;;;;13.41;65.22;101984.50;2016837;28;1825391;-75
2024/03/17 01:28:11;;;;;;;;;14.80;14.80;;;;;13.45;65.11;101991.47;2000173;28;2802311;-74
2024/03/17 01:29:22;;;;;;;;;15.50;14.50;;;;;13.42;65.03;101983.63;2009084;28;1829444;-75
2024/03/17 01:30:34;;;;;;;;;23.00;18.33;;;;;13.38;65.07;101963.47;1985900;28;3561683;-75
2024/03/17 01:31:46;;;;;;;;;17.33;16.33;;;;;13.39;64.92;101967.84;2018822;28;2829514;-75
2024/03/17 01:32:56;;;;;;;;;13.00;11.50;;;;;13.46;65.28;101982.63;2000589;28;2788211;-75
2024/03/17 01:34:08;;;;;;;;;15.00;14.00;;;;;13.39;64.86;101973.13;2023183;28;2805490;-75
2024/03/17 01:35:18;;;;;;;;;20.50;16.00;;;;;13.44;65.04;101973.00;2001220;28;2822204;-75
2024/03/17 01:36:30;;;;;;;;;16.00;14.80;;;;;13.44;64.98;101973.88;2012366;28;1823159;-75
2024/03/17 01:37:42;;;;;;;;;17.00;17.00;;;;;13.46;64.88;101977.34;2006660;28;3538802;-74
2024/03/17 01:38:52;;;;;;;;;16.00;14.50;;;;;13.46;65.06;101972.06;1999076;28;2808659;-75
2024/03/17 01:40:07;;;;;;;;;20.00;16.00;;;;;13.47;64.87;101968.53;2001365;28;2811693;-75
2024/03/17 01:41:18;;;;;;;;;18.00;14.50;;;;;13.46;65.22;101960.63;1993781;28;2812743;-75
2024/03/17 01:42:29;;;;;;;;;16.00;14.50;;;;;13.47;64.99;101962.38;1999924;28;2809642;-75
2024/03/17 01:43:40;;;;;;;;;12.00;12.00;;;;;13.48;65.17;101961.47;2001836;28;2798187;-75
2024/03/17 01:44:51;;;;;;;;;17.00;15.00;;;;;13.39;64.67;101949.34;2020234;28;2815901;-75
2024/03/17 01:46:03;;;;;;;;;18.40;17.00;;;;;13.46;65.05;101956.22;2007673;28;3556438;-75
2024/03/17 01:47:18;;;;;;;;;16.60;16.00;;;;;13.45;65.17;101946.56;2034022;28;2815884;-75
2024/03/17 01:48:31;;;;;;;;;15.20;15.00;;;;;13.48;65.32;101949.09;2011238;28;2787822;-74
2024/03/17 01:49:41;;;;;;;;;14.50;13.00;;;;;13.48;65.10;101956.19;1981760;28;2797122;-75
2024/03/17 01:50:56;;;;;;;;;19.33;16.33;;;;;13.40;65.22;101940.53;1994270;28;2829556;-75
2024/03/17 01:52:09;;;;;;;;;15.67;13.17;;;;;13.45;65.22;101954.50;2040009;28;1827420;-75
2024/03/17 01:53:20;;;;;;;;;14.00;14.00;;;;;13.48;65.31;101954.38;1985034;28;2787782;-75
2024/03/17 01:54:31;;;;;;;;;13.50;11.50;;;;;13.53;65.30;101961.34;2006655;28;2792312;-75
2024/03/17 01:55:44;;;;;;;;;16.50;16.00;;;;;13.54;65.06;101960.41;2014741;28;2806624;-75
2024/03/17 01:56:55;;;;;;;;;18.33;18.00;;;;;13.49;64.88;101944.69;1982855;28;3567925;-75
2024/03/17 01:58:10;;;;;;;;;20.00;14.50;;;;;13.53;64.85;101953.44;2030012;28;2814853;-75
2024/03/17 01:59:21;;;;;;;;;12.00;12.00;;;;;13.53;65.29;101956.91;1985016;28;2787822;-75
2024/03/17 02:00:34;;;;;;;;;18.40;15.20;;;;;13.52;64.92;101954.31;2018798;28;3544038;-75
2024/03/17 02:01:45;;;;;;;;;22.67;15.67;;;;;13.52;65.03;101954.31;2007570;28;2826380;-75
2024/03/17 02:02:56;;;;;;;;;14.50;14.50;;;;;13.55;64.88;101956.88;2008540;28;2802350;-75
2024/03/17 02:04:07;;;;;;;;;17.40;16.00;;;;;13.47;64.87;101936.81;2018458;28;1827392;-75
2024/03/17 02:05:18;;;;;;;;;15.00;14.00;;;;;13.54;64.77;101949.84;2006022;28;2799285;-75
2024/03/17 02:06:29;;;;;;;;;16.00;15.00;;;;;13.52;64.85;101954.31;1995884;28;2790912;-75
2024/03/17 02:07:40;;;;;;;;;18.50;14.75;;;;;13.52;65.00;101941.13;2018906;28;1834701;-75
2024/03/17 02:08:54;;;;;;;;;12.00;10.75;;;;;13.47;64.94;101942.13;1997500;28;1845079;-75
2024/03/17 02:10:05;;;;;;;;;16.00;14.50;;;;;13.48;64.78;101938.53;2008660;28;2812769;-75
2024/03/17 02:11:32;;;;;;;;;15.00;12.00;;;;;13.55;64.93;101954.25;1992351;28;2790848;-75
2024/03/17 02:12:47;;;;;;;;;18.00;16.83;;;;;13.47;64.67;101942.13;2022103;28;1835214;-74
2024/03/17 02:13:59;;;;;;;;;14.50;14.50;;;;;13.55;64.91;101948.97;1985078;28;2783617;-75
2024/03/17 02:15:10;;;;;;;;;14.00;12.00;;;;;13.52;65.21;101946.41;1979167;28;2791941;-75
2024/03/17 02:16:21;;;;;;;;;14.00;11.50;;;;;13.50;64.93;101943.81;2001908;28;2796081;-75
2024/03/17 02:17:33;;;;;;;;;12.00;12.00;;;;;13.54;64.85;101947.22;2014063;28;2787767;-75
2024/03/17 02:18:44;;;;;;;;;14.00;14.00;;;;;13.56;65.19;101950.69;1993688;28;2804418;-75
2024/03/17 02:19:57;;;;;;;;;10.50;10.17;;;;;13.54;64.87;101947.22;2034563;28;1821182;-75
2024/03/17 02:21:09;;;;;;;;;16.50;12.00;;;;;13.53;65.02;101943.69;1971708;28;2794021;-75
2024/03/17 02:22:19;;;;;;;;;17.00;16.50;;;;;13.55;65.28;101955.13;2010679;28;2816941;-75
2024/03/17 02:23:33;;;;;;;;;14.50;14.50;;;;;13.54;65.02;101941.94;2029725;28;2798192;-75
2024/03/17 02:24:46;;;;;;;;;14.17;11.83;;;;;13.55;64.92;101943.69;2035031;28;1819101;-75
2024/03/17 02:26:00;;;;;;;;;2.50;1.33;;;;;13.54;64.90;101940.16;2009018;28;2744018;-75
2024/03/17 02:27:10;;;;;;;;;15.50;10.50;;;;;13.54;64.72;101936.66;1992306;28;2784662;-75
2024/03/17 02:28:23;;;;;;;;;11.40;11.40;;;;;13.55;64.60;101941.91;2037924;28;1824221;-75
2024/03/17 02:29:33;;;;;;;;;12.00;12.00;;;;;13.56;64.78;101934.84;1998334;28;2796053;-75
2024/03/17 02:30:44;;;;;;;;;14.00;12.00;;;;;13.57;64.70;101944.53;1987800;28;2788802;-75
2024/03/17 02:31:55;;;;;;;;;11.00;10.00;;;;;13.59;64.78;101940.06;2022510;28;2784638;-75
2024/03/17 02:33:07;;;;;;;;;10.25;10.25;;;;;13.59;64.42;101946.22;2007038;28;1834792;-75
2024/03/17 02:34:18;;;;;;;;;11.50;11.50;;;;;13.54;64.59;101931.38;2005064;28;2779410;-75
2024/03/17 02:35:29;;;;;;;;;12.67;10.67;;;;;13.58;64.60;101933.06;1992310;28;3499218;-75
2024/03/17 02:36:40;;;;;;;;;16.00;11.50;;;;;13.57;64.57;101931.34;2025216;28;2788805;-75
2024/03/17 02:37:52;;;;;;;;;12.25;10.50;;;;;13.57;64.71;101926.91;2044731;28;1837855;-75
2024/03/17 02:40:31;;;;;;;;;12.00;11.00;;;;;13.57;64.81;101924.28;2010898;28;2787803;-75
2024/03/17 02:41:43;;;;;;;;;11.00;11.00;;;;;13.61;64.43;101935.63;2024883;28;2789847;-75
2024/03/17 02:42:55;;;;;;;;;12.67;10.00;;;;;13.55;64.50;101919.91;1984488;28;3493057;-75
2024/03/17 02:44:05;;;;;;;;;10.50;10.50;;;;;13.59;64.29;101929.50;2015744;28;2777402;-75
2024/03/17 02:45:17;;;;;;;;;14.00;12.25;;;;;13.56;64.22;101919.88;2005717;28;1841970;-75
2024/03/17 02:46:27;;;;;;;;;12.50;10.50;;;;;13.63;64.38;101933.78;2010327;28;2781485;-75
2024/03/17 02:47:39;;;;;;;;;14.00;12.00;;;;;13.64;64.24;101932.03;1999089;28;2783657;-75
2024/03/17 02:48:52;;;;;;;;;14.00;9.50;;;;;13.60;64.34;101925.97;2006538;28;2777364;-75
2024/03/17 02:50:04;;;;;;;;;11.25;9.75;;;;;13.60;64.18;101920.69;2007246;28;1832679;-75
2024/03/17 02:51:16;;;;;;;;;11.00;10.00;;;;;13.64;64.18;101922.34;2009042;28;2777347;-75
2024/03/17 02:52:26;;;;;;;;;10.50;10.50;;;;;13.63;64.19;101917.94;2016098;28;2773674;-75
2024/03/17 02:53:37;;;;;;;;;10.00;10.00;;;;;13.58;64.38;101912.78;2015812;28;2777340;-75
2024/03/17 02:54:48;;;;;;;;;13.50;11.00;;;;;13.57;64.21;101905.78;2013145;28;2787740;-75
2024/03/17 02:55:59;;;;;;;;;10.00;10.00;;;;;13.62;64.12;101918.88;2021626;28;2772167;-75
2024/03/17 02:57:11;;;;;;;;;12.00;9.50;;;;;13.65;64.53;101913.50;2015642;28;2766915;-75
2024/03/17 02:58:21;;;;;;;;;11.00;10.00;;;;;13.59;64.49;101897.81;2003253;28;2780492;-75
2024/03/17 02:59:33;;;;;;;;;15.50;11.00;;;;;13.66;64.22;101903.78;2017885;28;2791930;-75
2024/03/17 03:00:46;;;;;;;;;12.17;10.83;;;;;13.66;64.24;101909.94;2040958;28;1821190;-75
2024/03/17 03:01:59;;;;;;;;;9.00;9.00;;;;;13.68;64.69;101896.72;1994777;28;3463805;-75
2024/03/17 03:03:09;;;;;;;;;10.67;10.00;;;;;13.69;64.15;101887.84;2022407;28;1834626;-75
2024/03/17 03:04:21;;;;;;;;;17.00;10.00;;;;;13.63;64.32;101883.59;2002217;28;2794013;-75
2024/03/17 03:05:32;;;;;;;;;9.00;9.00;;;;;13.68;64.40;101886.16;2008602;28;2749251;-75
2024/03/17 03:06:43;;;;;;;;;11.50;11.50;;;;;13.65;64.38;101876.53;2015481;28;2772170;-75
2024/03/17 03:07:54;;;;;;;;;14.75;10.75;;;;;13.70;64.63;101879.03;2024136;28;1845214;-75
2024/03/17 03:09:13;;;;;;;;;9.67;9.00;;;;;13.68;64.27;101884.34;2008386;28;2754392;-75
2024/03/17 03:10:23;;;;;;;;;8.50;8.50;;;;;13.68;64.15;101872.94;2016816;28;2735671;-75
2024/03/17 03:11:35;;;;;;;;;14.00;10.75;;;;;13.68;64.14;101871.13;2046739;28;1819047;-75
2024/03/17 03:12:45;;;;;;;;;13.50;11.50;;;;;13.70;64.16;101869.31;1992947;28;2798160;-75
2024/03/17 03:13:56;;;;;;;;;9.00;8.00;;;;;13.66;64.36;101865.03;2000530;28;2746059;-75
2024/03/17 03:15:08;;;;;;;;;14.00;10.00;;;;;13.69;64.20;101864.94;2032311;28;2783585;-75
2024/03/17 03:16:18;;;;;;;;;13.00;12.00;;;;;13.66;63.93;101854.47;2003940;28;2789854;-75
2024/03/17 03:17:29;;;;;;;;;11.00;10.00;;;;;13.62;64.07;101847.53;1990857;28;2776285;-75
2024/03/17 03:18:41;;;;;;;;;11.50;9.50;;;;;13.68;64.42;101857.91;2024932;28;2767985;-75
2024/03/17 03:19:51;;;;;;;;;12.00;10.00;;;;;13.67;64.44;101853.56;2007512;28;2770088;-75
2024/03/17 03:21:04;;;;;;;;;12.80;12.40;;;;;13.68;64.17;101851.81;2038026;28;1814882;-75
2024/03/17 03:22:14;;;;;;;;;15.67;9.67;;;;;13.66;64.07;101851.81;2015646;28;3505439;-75
2024/03/17 03:23:26;;;;;;;;;14.50;12.00;;;;;13.69;64.18;101859.66;2032092;28;2782544;-75
2024/03/17 03:24:40;;;;;;;;;11.17;9.17;;;;;13.71;64.31;101868.41;2047583;28;1820035;-75
2024/03/17 03:25:56;;;;;;;;;13.50;9.00;;;;;13.71;64.22;101875.47;2006506;28;1833606;-75
2024/03/17 03:27:06;;;;;;;;;13.00;10.50;;;;;13.71;64.01;101881.63;2000544;28;2782543;-75
2024/03/17 03:28:18;;;;;;;;;10.00;10.00;;;;;13.69;64.24;101869.38;1996997;28;2777327;-75
2024/03/17 03:29:28;;;;;;;;;10.00;8.00;;;;;13.65;64.37;101865.97;2022260;28;2746094;-75
2024/03/17 03:30:39;;;;;;;;;14.00;9.67;;;;;13.68;64.18;101865.84;2024951;28;3499194;-75
2024/03/17 03:31:51;;;;;;;;;8.50;8.50;;;;;13.71;64.41;101871.06;2035564;28;1829455;-75
2024/03/17 03:33:04;;;;;;;;;10.67;9.67;;;;;13.70;63.98;101864.03;2010080;28;3494081;-75
2024/03/17 03:34:15;;;;;;;;;11.33;9.00;;;;;13.71;64.22;101868.41;2018230;28;2768112;-75
2024/03/17 03:35:28;;;;;;;;;7.67;7.67;;;;;13.68;64.24;101855.28;2034068;28;2740943;-75
2024/03/17 03:36:41;;;;;;;;;11.25;9.75;;;;;13.70;64.13;101856.09;2016864;28;1832546;-75
2024/03/17 03:37:51;;;;;;;;;8.67;7.67;;;;;13.69;64.24;101851.75;2003179;28;2737840;-75
2024/03/17 03:39:04;;;;;;;;;10.00;10.00;;;;;13.73;64.08;101852.50;2046103;28;1833035;-75
2024/03/17 03:40:18;;;;;;;;;11.67;11.00;;;;;13.70;64.20;101852.63;1982570;28;3496077;-75
2024/03/17 03:41:35;;;;;;;;;8.50;7.33;;;;;13.69;64.52;101840.31;2028472;28;2745053;-75
2024/03/17 03:42:45;;;;;;;;;5.00;4.67;;;;;13.68;64.06;101839.44;1988448;28;2750308;-75
2024/03/17 03:43:57;;;;;;;;;12.50;10.00;;;;;13.69;64.52;101838.53;2026526;28;2770119;-75
2024/03/17 03:45:08;;;;;;;;;10.00;8.67;;;;;13.71;64.76;101836.72;2022804;28;1827904;-75
2024/03/17 03:46:21;;;;;;;;;6.83;6.50;;;;;13.69;64.41;101835.91;2016134;28;2737787;-75
2024/03/17 03:47:32;;;;;;;;;10.00;10.00;;;;;13.66;64.52;101833.34;2018478;28;1828407;-75
2024/03/17 03:48:43;;;;;;;;;10.00;10.00;;;;;13.68;64.94;101843.88;1988947;28;2770102;-75
2024/03/17 03:49:54;;;;;;;;;9.00;9.00;;;;;13.69;64.59;101843.81;2014097;28;2751349;-75
2024/03/17 03:51:09;;;;;;;;;10.67;10.00;;;;;13.65;65.16;101838.66;2031360;28;3508556;-75
2024/03/17 03:52:21;;;;;;;;;9.00;9.00;;;;;13.69;65.52;101846.47;2017506;28;2733634;-75
2024/03/17 03:53:32;;;;;;;;;9.00;9.00;;;;;13.66;64.95;101846.53;2017127;28;3445055;-75
2024/03/17 03:54:42;;;;;;;;;9.33;7.33;;;;;13.71;65.15;101860.50;2018085;28;2753504;-75
2024/03/17 03:55:53;;;;;;;;;10.00;10.00;;;;;13.64;65.42;101845.72;2033675;28;3489300;-75
2024/03/17 03:57:04;;;;;;;;;8.00;8.00;;;;;13.63;65.21;101849.25;2025892;28;2738798;-75
2024/03/17 03:58:15;;;;;;;;;11.00;11.00;;;;;13.70;65.29;101863.19;2025966;28;2775760;-75
2024/03/17 03:59:26;;;;;;;;;12.67;8.00;;;;;13.70;65.57;101871.09;2020778;28;3480437;-75
2024/03/17 04:00:39;;;;;;;;;8.33;6.67;;;;;13.66;65.36;101865.03;2027139;28;2748196;-75
2024/03/17 04:01:49;;;;;;;;;9.50;8.00;;;;;13.69;65.67;101866.72;2007666;28;2763864;-75
2024/03/17 04:03:01;;;;;;;;;9.67;9.33;;;;;13.67;66.12;101865.91;2032901;28;1811732;-75
2024/03/17 04:04:12;;;;;;;;;9.67;7.67;;;;;13.66;65.50;101872.97;1987766;28;2756610;-75
2024/03/17 04:05:23;;;;;;;;;10.00;9.00;;;;;13.65;65.50;101873.88;2012341;28;2745072;-75
2024/03/17 04:06:34;;;;;;;;;11.00;9.33;;;;;13.65;65.34;101883.56;2027801;28;3492405;-75
2024/03/17 04:07:46;;;;;;;;;10.33;8.67;;;;;13.61;65.40;101877.50;2031290;28;2756598;-75
2024/03/17 04:08:57;;;;;;;;;9.33;9.33;;;;;13.53;65.54;101867.09;2015277;28;1837809;-75
2024/03/17 04:10:09;;;;;;;;;8.67;8.00;;;;;13.61;65.78;101885.41;2006676;28;1821087;-75
2024/03/17 04:11:20;;;;;;;;;9.50;8.75;;;;;13.56;65.45;101876.72;2001840;28;1837772;-75
2024/03/17 04:12:31;;;;;;;;;11.00;10.00;;;;;13.56;65.45;101877.63;2006860;28;2766460;-75
2024/03/17 04:13:43;;;;;;;;;14.00;11.60;;;;;13.53;65.83;101872.38;2030280;28;1823222;-75
2024/03/17 04:14:55;;;;;;;;;9.00;8.33;;;;;13.57;65.66;101879.38;2010262;28;3459646;-75
2024/03/17 04:16:06;;;;;;;;;8.33;8.33;;;;;13.54;65.94;101875.91;2007092;28;2738296;-75
2024/03/17 04:17:18;;;;;;;;;10.75;10.75;;;;;13.56;66.11;101882.00;2013285;28;1837782;-75
2024/03/17 04:18:34;;;;;;;;;7.67;6.67;;;;;13.56;66.12;101877.63;2027738;28;2729417;-75
2024/03/17 04:19:45;;;;;;;;;7.33;7.33;;;;;13.54;66.19;101873.25;1986008;28;3465842;-75
2024/03/17 04:21:01;;;;;;;;;12.00;9.75;;;;;13.54;66.42;101870.63;2022006;28;1835174;-75
2024/03/17 04:22:16;;;;;;;;;8.50;7.33;;;;;13.48;66.24;101861.94;2028622;28;2737809;-75
2024/03/17 04:23:26;;;;;;;;;7.00;7.00;;;;;13.51;66.51;101868.94;1987636;28;2740973;-75
2024/03/17 04:24:37;;;;;;;;;9.50;9.00;;;;;13.47;66.57;101868.16;2031088;28;2755488;-75
2024/03/17 04:25:50;;;;;;;;;9.33;8.67;;;;;13.45;66.61;101867.34;2032895;28;3467905;-75
2024/03/17 04:27:04;;;;;;;;;8.50;7.50;;;;;13.49;66.71;101871.63;2043145;28;2737719;-75
2024/03/17 04:28:17;;;;;;;;;7.83;5.83;;;;;13.54;66.66;101875.91;2019096;28;2738786;-75
2024/03/17 04:29:28;;;;;;;;;10.00;10.00;;;;;13.48;66.54;101859.31;1992550;28;2774183;-75
2024/03/17 04:30:40;;;;;;;;;9.75;7.75;;;;;13.47;66.70;101860.25;2016372;28;1829489;-75
2024/03/17 04:31:50;;;;;;;;;11.00;11.00;;;;;13.48;66.71;101858.47;2008035;28;2780492;-75
2024/03/17 04:33:02;;;;;;;;;11.67;10.00;;;;;13.48;66.75;101859.31;2032328;28;3497206;-75
2024/03/17 04:34:13;;;;;;;;;16.00;9.50;;;;;13.52;67.03;101864.53;2015538;28;2771507;-75
2024/03/17 04:35:24;;;;;;;;;6.33;6.33;;;;;13.55;67.21;101881.16;2033051;28;2745165;-75
2024/03/17 04:36:35;;;;;;;;;10.50;10.25;;;;;13.47;67.22;101870.81;2047349;28;1835744;-75
2024/03/17 04:37:46;;;;;;;;;13.00;11.50;;;;;13.52;67.04;101877.72;2006758;28;2784665;-75
2024/03/17 04:38:58;;;;;;;;;10.20;9.60;;;;;13.47;67.22;101865.53;2033173;28;1819568;-75
2024/03/17 04:40:09;;;;;;;;;12.00;9.50;;;;;13.50;67.25;101869.84;2010322;28;2779430;-75
2024/03/17 04:41:20;;;;;;;;;10.00;8.00;;;;;13.49;67.06;101868.97;1989914;28;2751280;-75
2024/03/17 04:42:31;;;;;;;;;9.25;8.75;;;;;13.46;67.28;101863.78;2042251;28;1814831;-75
2024/03/17 04:43:42;;;;;;;;;11.00;9.50;;;;;13.48;67.48;101869.03;2010356;28;2777367;-75
2024/03/17 04:44:54;;;;;;;;;12.40;11.60;;;;;13.49;67.50;101871.63;2038954;28;1821167;-75
2024/03/17 04:46:07;;;;;;;;;14.00;10.50;;;;;13.50;67.41;101883.94;2024035;28;1835727;-75
2024/03/17 04:47:18;;;;;;;;;11.00;9.00;;;;;13.46;67.47;101866.41;2017475;28;1840947;-75
2024/03/17 04:48:29;;;;;;;;;10.33;9.67;;;;;13.50;67.53;101872.50;2002601;28;3485645;-75
2024/03/17 04:49:42;;;;;;;;;12.33;9.00;;;;;13.51;67.40;101871.56;2029191;28;3481502;-75
2024/03/17 04:50:53;;;;;;;;;12.00;9.50;;;;;13.52;67.77;101872.44;2017559;28;2761066;-75
2024/03/17 04:52:04;;;;;;;;;11.00;10.33;;;;;13.53;67.38;101876.84;2048922;28;1823193;-75
2024/03/17 04:53:15;;;;;;;;;15.00;11.50;;;;;13.48;67.60;101869.88;1992864;28;2786734;-75
2024/03/17 04:54:26;;;;;;;;;14.60;11.00;;;;;13.42;67.91;101855.97;2039594;28;1819536;-75
2024/03/17 04:55:38;;;;;;;;;8.33;8.33;;;;;13.50;67.88;101868.09;2025195;28;1829456;-75
2024/03/17 04:56:49;;;;;;;;;10.50;10.50;;;;;13.49;67.64;101868.97;1995832;28;1842006;-75
2024/03/17 04:58:00;;;;;;;;;14.50;11.00;;;;;13.46;67.88;101860.25;2019474;28;2788248;-75
2024/03/17 04:59:11;;;;;;;;;12.00;11.00;;;;;13.50;67.67;101868.09;2036015;28;2780495;-75
2024/03/17 05:00:22;;;;;;;;;10.33;10.00;;;;;13.47;67.75;101865.53;2002764;28;3499166;-75
2024/03/17 05:01:36;;;;;;;;;9.67;9.67;;;;;13.47;67.58;101862.88;2018122;28;3483596;-75
2024/03/17 05:02:48;;;;;;;;;15.50;12.50;;;;;13.48;68.08;101864.59;2022833;28;1828476;-75
2024/03/17 05:03:58;;;;;;;;;10.00;8.67;;;;;13.52;68.15;101875.97;2006860;28;3476336;-75
2024/03/17 05:05:10;;;;;;;;;10.50;10.00;;;;;13.50;67.98;101862.81;2016739;28;2778873;-75
2024/03/17 05:06:21;;;;;;;;;10.67;7.00;;;;;13.45;67.94;101853.25;2011786;28;2757552;-75
2024/03/17 05:07:32;;;;;;;;;14.00;13.00;;;;;13.49;68.05;101860.19;2015656;28;2786738;-75
2024/03/17 05:08:43;;;;;;;;;15.00;11.50;;;;;13.49;68.43;101862.81;2009491;28;2786049;-75
2024/03/17 05:09:54;;;;;;;;;11.50;11.50;;;;;13.52;68.11;101859.25;2016476;28;2763342;-75
2024/03/17 05:11:05;;;;;;;;;11.50;10.50;;;;;13.48;68.22;101855.84;2027119;28;2778915;-75
2024/03/17 05:12:16;;;;;;;;;12.00;11.50;;;;;13.45;68.21;101843.56;2001453;28;2789843;-75
2024/03/17 05:13:27;;;;;;;;;13.67;11.67;;;;;13.44;68.29;101841.81;2026462;28;1834672;-75
2024/03/17 05:14:38;;;;;;;;;14.50;12.00;;;;;13.43;68.09;101842.75;1986076;28;2791937;-75
2024/03/17 05:15:49;;;;;;;;;12.00;10.50;;;;;13.45;68.29;101846.22;2010849;28;2786737;-75
2024/03/17 05:17:00;;;;;;;;;11.50;9.50;;;;;13.50;68.36;101859.28;2025036;28;2779442;-75
2024/03/17 05:18:11;;;;;;;;;15.50;13.00;;;;;13.50;68.45;101859.28;2000450;28;2800316;-75
2024/03/17 05:19:23;;;;;;;;;13.25;11.75;;;;;13.47;68.52;101857.59;2003522;28;1821170;-75
2024/03/17 05:20:33;;;;;;;;;15.00;12.00;;;;;13.46;68.38;101850.56;1975082;28;2796129;-75
2024/03/17 05:21:45;;;;;;;;;13.00;10.00;;;;;13.43;68.54;101845.41;1995480;28;2782590;-75